createdAt,value
2022-09-23T00:01:07.642Z,7.39
2022-09-23T00:02:10.942Z,7.34
2022-09-23T00:03:12.537Z,7.40
2022-09-23T00:04:13.994Z,7.49
2022-09-23T00:05:15.885Z,7.56
2022-09-23T00:06:22.748Z,7.62
2022-09-23T00:07:24.293Z,7.64
2022-09-23T00:08:25.737Z,7.60
2022-09-23T00:09:27.243Z,7.66
2022-09-23T00:10:31.306Z,7.72
2022-09-23T00:11:33.139Z,7.62
2022-09-23T00:12:34.570Z,7.51
2022-09-23T00:13:36.971Z,7.52
2022-09-23T00:14:39.513Z,7.41
2022-09-23T00:15:40.978Z,7.44
2022-09-23T00:16:42.818Z,7.51
2022-09-23T00:17:45.253Z,7.56
2022-09-23T00:18:46.856Z,7.53
2022-09-23T00:19:48.346Z,7.41
2022-09-23T00:20:49.776Z,7.37
2022-09-23T00:21:51.545Z,7.44
2022-09-23T00:22:53.382Z,7.37
2022-09-23T00:23:54.821Z,7.23
2022-09-23T00:24:56.264Z,6.88
2022-09-23T00:25:59.163Z,6.84
2022-09-23T00:27:01.901Z,6.91
2022-09-23T00:28:03.323Z,6.85
2022-09-23T00:29:04.890Z,6.81
2022-09-23T00:30:09.041Z,6.71
2022-09-23T00:31:14.735Z,6.59
2022-09-23T00:32:16.597Z,6.59
2022-09-23T00:33:18.160Z,6.61
2022-09-23T00:34:19.641Z,6.62
2022-09-23T00:35:21.113Z,6.62
2022-09-23T00:36:23.112Z,6.61
2022-09-23T00:37:24.547Z,6.67
2022-09-23T00:38:25.990Z,6.59
2022-09-23T00:39:27.393Z,6.80
2022-09-23T00:40:28.896Z,6.78
2022-09-23T00:41:30.811Z,6.72
2022-09-23T00:42:32.253Z,6.70
2022-09-23T00:43:41.850Z,6.84
2022-09-23T00:44:55.077Z,6.98
2022-09-23T00:45:56.731Z,6.98
2022-09-23T00:46:58.507Z,6.83
2022-09-23T00:48:02.755Z,6.82
2022-09-23T00:49:11.179Z,6.91
2022-09-23T00:50:27.857Z,6.97
2022-09-23T00:51:37.207Z,6.96
2022-09-23T00:52:39.525Z,6.93
2022-09-23T00:53:41.717Z,7.09
2022-09-23T00:54:44.368Z,7.00
2022-09-23T00:55:49.086Z,6.87
2022-09-23T00:56:51.070Z,6.92
2022-09-23T00:57:56.479Z,6.92
2022-09-23T00:58:58.014Z,6.87
2022-09-23T00:59:59.822Z,6.85
2022-09-23T01:01:03.025Z,6.83
2022-09-23T01:02:05.698Z,6.80
2022-09-23T01:03:07.301Z,6.79
2022-09-23T01:04:09.834Z,6.81
2022-09-23T01:05:11.440Z,6.85
2022-09-23T01:06:14.242Z,6.79
2022-09-23T01:07:15.968Z,6.74
2022-09-23T01:08:18.456Z,6.73
2022-09-23T01:09:21.938Z,6.64
2022-09-23T01:10:24.273Z,6.52
2022-09-23T01:11:39.162Z,6.52
2022-09-23T01:13:13.060Z,6.45
2022-09-23T01:14:47.756Z,6.38
2022-09-23T01:16:06.400Z,6.37
2022-09-23T01:17:21.805Z,6.55
2022-09-23T01:18:41.956Z,6.53
2022-09-23T01:20:08.465Z,6.66
2022-09-23T01:21:21.027Z,6.71
2022-09-23T01:22:53.379Z,6.60
2022-09-23T01:24:36.259Z,6.51
2022-09-23T01:26:05.403Z,6.30
2022-09-23T01:27:19.584Z,6.30
2022-09-23T01:28:29.171Z,6.15
2022-09-23T01:29:48.123Z,6.14
2022-09-23T01:31:05.688Z,6.18
2022-09-23T01:32:32.502Z,6.24
2022-09-23T01:33:53.151Z,6.25
2022-09-23T01:35:23.761Z,6.21
2022-09-23T01:36:50.054Z,6.24
2022-09-23T01:38:22.751Z,6.17
2022-09-23T01:39:55.667Z,6.20
2022-09-23T01:40:59.996Z,6.16
2022-09-23T01:42:09.878Z,6.22
2022-09-23T01:43:20.083Z,6.20
2022-09-23T01:44:31.160Z,6.19
2022-09-23T01:45:43.438Z,6.24
2022-09-23T01:46:55.884Z,6.24
2022-09-23T01:48:04.831Z,6.25
2022-09-23T01:49:34.030Z,6.22
2022-09-23T01:50:56.645Z,6.23
2022-09-23T01:52:11.628Z,6.39
2022-09-23T01:53:20.774Z,6.32
2022-09-23T01:54:45.391Z,6.37
2022-09-23T01:55:51.582Z,6.33
2022-09-23T01:57:01.656Z,6.30
2022-09-23T01:58:09.786Z,6.30
2022-09-23T01:59:18.591Z,6.34
2022-09-23T02:00:23.076Z,6.36
2022-09-23T02:01:32.040Z,6.43
2022-09-23T02:02:46.724Z,6.46
2022-09-23T02:03:59.621Z,6.60
2022-09-23T02:05:26.040Z,6.55
2022-09-23T02:06:36.352Z,6.49
2022-09-23T02:08:02.370Z,6.53
2022-09-23T02:09:12.379Z,6.49
2022-09-23T02:10:25.778Z,6.41
2022-09-23T02:11:28.101Z,6.33
2022-09-23T02:12:34.828Z,6.27
2022-09-23T02:13:52.456Z,6.13
2022-09-23T02:15:03.300Z,6.27
2022-09-23T02:16:12.854Z,6.23
2022-09-23T02:17:21.429Z,6.14
2022-09-23T02:18:27.046Z,6.11
2022-09-23T02:19:40.275Z,6.09
2022-09-23T02:20:43.225Z,6.10
2022-09-23T02:21:52.061Z,6.02
2022-09-23T02:23:06.123Z,6.02
2022-09-23T02:24:14.587Z,6.04
2022-09-23T02:25:17.414Z,5.94
2022-09-23T02:26:22.798Z,6.02
2022-09-23T02:27:32.707Z,6.08
2022-09-23T02:28:49.618Z,5.98
2022-09-23T02:30:09.492Z,6.01
2022-09-23T02:31:21.606Z,6.03
2022-09-23T02:32:36.265Z,5.85
2022-09-23T02:33:59.917Z,5.89
2022-09-23T02:35:06.579Z,5.84
2022-09-23T02:36:22.770Z,5.79
2022-09-23T02:37:43.656Z,5.87
2022-09-23T02:38:53.569Z,6.05
2022-09-23T02:40:13.210Z,6.03
2022-09-23T02:41:32.642Z,6.11
2022-09-23T02:43:04.283Z,6.10
2022-09-23T02:44:17.257Z,6.03
2022-09-23T02:45:18.864Z,6.11
2022-09-23T02:46:21.648Z,6.07
2022-09-23T02:47:28.392Z,6.02
2022-09-23T02:48:35.925Z,5.90
2022-09-23T02:49:37.527Z,5.96
2022-09-23T02:50:39.381Z,5.87
2022-09-23T02:51:41.919Z,5.81
2022-09-23T02:52:44.116Z,5.79
2022-09-23T02:53:46.619Z,5.73
2022-09-23T02:54:48.088Z,5.71
2022-09-23T02:55:51.024Z,5.66
2022-09-23T02:56:53.767Z,5.68
2022-09-23T02:57:55.170Z,5.72
2022-09-23T02:58:56.990Z,5.83
2022-09-23T02:59:58.523Z,5.96
2022-09-23T03:01:21.761Z,6.00
2022-09-23T03:02:56.313Z,5.96
2022-09-23T03:04:22.552Z,5.96
2022-09-23T03:05:37.617Z,5.76
2022-09-23T03:07:02.860Z,5.66
2022-09-23T03:08:22.718Z,5.65
2022-09-23T03:09:51.440Z,5.57
2022-09-23T03:11:04.293Z,5.78
2022-09-23T03:12:43.837Z,5.69
2022-09-23T03:13:58.525Z,5.88
2022-09-23T03:15:23.922Z,5.97
2022-09-23T03:16:37.174Z,5.86
2022-09-23T03:17:47.780Z,5.78
2022-09-23T03:18:55.890Z,5.63
2022-09-23T03:20:23.927Z,5.57
2022-09-23T03:21:35.509Z,5.49
2022-09-23T03:22:47.521Z,5.51
2022-09-23T03:23:50.300Z,5.54
2022-09-23T03:24:54.346Z,5.52
2022-09-23T03:25:59.636Z,5.55
2022-09-23T03:27:05.440Z,5.63
2022-09-23T03:28:08.596Z,5.61
2022-09-23T03:29:12.347Z,5.45
2022-09-23T03:30:14.369Z,5.44
2022-09-23T03:31:17.402Z,5.47
2022-09-23T03:32:23.338Z,5.42
2022-09-23T03:33:28.839Z,5.39
2022-09-23T03:34:33.864Z,5.33
2022-09-23T03:36:01.761Z,5.31
2022-09-23T03:37:11.260Z,5.49
2022-09-23T03:38:17.774Z,5.53
2022-09-23T03:39:28.272Z,5.42
2022-09-23T03:40:35.304Z,5.40
2022-09-23T03:41:41.108Z,5.40
2022-09-23T03:42:42.928Z,5.51
2022-09-23T03:43:45.864Z,5.57
2022-09-23T03:44:48.340Z,5.51
2022-09-23T03:45:53.519Z,5.41
2022-09-23T03:46:59.297Z,5.34
2022-09-23T03:48:01.578Z,5.33
2022-09-23T03:49:16.328Z,5.40
2022-09-23T03:50:18.000Z,5.36
2022-09-23T03:51:23.741Z,5.42
2022-09-23T03:52:26.716Z,5.32
2022-09-23T03:53:28.129Z,5.27
2022-09-23T03:54:29.988Z,5.28
2022-09-23T03:55:32.247Z,5.32
2022-09-23T03:56:33.675Z,5.33
2022-09-23T03:57:36.282Z,5.31
2022-09-23T03:58:38.134Z,5.27
2022-09-23T03:59:40.303Z,5.17
2022-09-23T04:00:42.398Z,5.16
2022-09-23T04:01:44.222Z,5.18
2022-09-23T04:02:46.044Z,5.25
2022-09-23T04:03:47.528Z,5.21
2022-09-23T04:04:49.036Z,5.20
2022-09-23T04:05:50.439Z,5.18
2022-09-23T04:06:52.009Z,5.14
2022-09-23T04:07:53.807Z,5.18
2022-09-23T04:08:55.248Z,5.38
2022-09-23T04:09:56.853Z,5.52
2022-09-23T04:11:03.659Z,5.55
2022-09-23T04:12:05.995Z,5.38
2022-09-23T04:13:07.443Z,5.30
2022-09-23T04:14:08.928Z,5.38
2022-09-23T04:15:10.738Z,5.49
2022-09-23T04:16:12.252Z,5.59
2022-09-23T04:17:14.417Z,5.52
2022-09-23T04:18:15.815Z,5.58
2022-09-23T04:19:17.400Z,5.60
2022-09-23T04:20:19.247Z,5.63
2022-09-23T04:21:20.702Z,5.56
2022-09-23T04:22:22.526Z,5.60
2022-09-23T04:23:25.056Z,5.57
2022-09-23T04:24:26.634Z,5.48
2022-09-23T04:25:28.048Z,5.43
2022-09-23T04:26:30.193Z,5.37
2022-09-23T04:27:36.897Z,5.29
2022-09-23T04:28:39.154Z,5.11
2022-09-23T04:29:40.562Z,5.04
2022-09-23T04:30:43.848Z,4.80
2022-09-23T04:31:45.368Z,4.73
2022-09-23T04:32:47.172Z,4.77
2022-09-23T04:33:48.575Z,4.84
2022-09-23T04:34:50.052Z,4.79
2022-09-23T04:35:52.178Z,4.81
2022-09-23T04:36:53.650Z,4.80
2022-09-23T04:37:55.398Z,4.88
2022-09-23T04:38:57.148Z,4.87
2022-09-23T04:39:58.636Z,4.88
2022-09-23T04:41:00.300Z,4.77
2022-09-23T04:42:01.741Z,4.81
2022-09-23T04:43:03.231Z,4.81
2022-09-23T04:44:04.995Z,4.77
2022-09-23T04:45:06.955Z,4.78
2022-09-23T04:46:11.145Z,4.80
2022-09-23T04:47:13.009Z,4.91
2022-09-23T04:48:14.414Z,4.98
2022-09-23T04:49:16.470Z,5.10
2022-09-23T04:50:18.180Z,5.19
2022-09-23T04:51:22.030Z,5.22
2022-09-23T04:52:23.811Z,5.11
2022-09-23T04:53:25.525Z,5.00
2022-09-23T04:54:27.389Z,5.09
2022-09-23T04:55:28.819Z,5.04
2022-09-23T04:56:34.182Z,4.94
2022-09-23T04:57:35.988Z,4.96
2022-09-23T04:58:38.596Z,4.98
2022-09-23T04:59:41.355Z,4.92
2022-09-23T05:00:42.929Z,4.97
2022-09-23T05:01:44.789Z,5.04
2022-09-23T05:02:47.900Z,4.99
2022-09-23T05:03:49.244Z,4.96
2022-09-23T05:04:50.697Z,4.93
2022-09-23T05:05:52.413Z,4.99
2022-09-23T05:06:54.519Z,4.95
2022-09-23T05:07:55.955Z,4.85
2022-09-23T05:08:58.779Z,4.79
2022-09-23T05:10:00.198Z,4.67
2022-09-23T05:11:06.758Z,4.70
2022-09-23T05:12:08.234Z,4.68
2022-09-23T05:13:09.656Z,4.63
2022-09-23T05:14:11.663Z,4.61
2022-09-23T05:15:16.083Z,4.68
2022-09-23T05:16:18.348Z,4.73
2022-09-23T05:17:21.415Z,4.70
2022-09-23T05:18:22.902Z,4.76
2022-09-23T05:19:24.410Z,4.78
2022-09-23T05:20:26.010Z,4.75
2022-09-23T05:21:29.007Z,4.74
2022-09-23T05:22:30.976Z,4.68
2022-09-23T05:23:33.310Z,4.64
2022-09-23T05:24:34.717Z,4.61
2022-09-23T05:25:38.337Z,4.57
2022-09-23T05:26:40.162Z,4.48
2022-09-23T05:27:42.271Z,4.39
2022-09-23T05:28:43.782Z,4.47
2022-09-23T05:29:45.346Z,4.46
2022-09-23T05:30:46.841Z,4.50
2022-09-23T05:31:48.257Z,4.58
2022-09-23T05:32:50.030Z,4.66
2022-09-23T05:33:54.744Z,4.71
2022-09-23T05:34:56.206Z,4.86
2022-09-23T05:35:57.972Z,4.91
2022-09-23T05:36:59.619Z,4.88
2022-09-23T05:38:01.019Z,4.93
2022-09-23T05:39:03.722Z,4.85
2022-09-23T05:40:05.745Z,5.03
2022-09-23T05:41:09.172Z,5.14
2022-09-23T05:42:12.768Z,5.17
2022-09-23T05:43:14.277Z,5.09
2022-09-23T05:44:15.866Z,5.05
2022-09-23T05:45:17.687Z,5.06
2022-09-23T05:46:24.331Z,5.18
2022-09-23T05:47:26.099Z,5.20
2022-09-23T05:48:27.626Z,5.24
2022-09-23T05:49:48.381Z,5.35
2022-09-23T05:50:51.413Z,5.44
2022-09-23T05:51:52.871Z,5.37
2022-09-23T05:52:54.957Z,5.36
2022-09-23T05:53:58.325Z,5.40
2022-09-23T05:54:59.887Z,5.45
2022-09-23T05:56:01.645Z,5.51
2022-09-23T05:57:04.995Z,5.61
2022-09-23T05:58:06.981Z,5.77
2022-09-23T05:59:08.537Z,5.78
2022-09-23T06:00:10.742Z,5.85
2022-09-23T06:01:14.967Z,5.92
2022-09-23T06:02:16.947Z,5.99
2022-09-23T06:03:20.460Z,6.08
2022-09-23T06:04:22.031Z,6.15
2022-09-23T06:05:23.566Z,6.35
2022-09-23T06:06:42.430Z,6.41
2022-09-23T06:07:43.856Z,6.61
2022-09-23T06:08:46.679Z,6.60
2022-09-23T06:09:48.478Z,6.62
2022-09-23T06:10:54.360Z,6.70
2022-09-23T06:11:58.989Z,6.73
2022-09-23T06:13:00.652Z,6.81
2022-09-23T06:14:03.270Z,6.87
2022-09-23T06:15:05.320Z,7.00
2022-09-23T06:16:08.501Z,7.10
2022-09-23T06:17:09.984Z,7.16
2022-09-23T06:18:12.219Z,7.25
2022-09-23T06:19:13.609Z,7.28
2022-09-23T06:20:15.081Z,7.35
2022-09-23T06:21:17.948Z,7.43
2022-09-23T06:22:19.707Z,7.48
2022-09-23T06:23:24.614Z,7.58
2022-09-23T06:24:31.044Z,7.67
2022-09-23T06:25:34.150Z,7.71
2022-09-23T06:26:37.798Z,7.82
2022-09-23T06:27:39.664Z,7.90
2022-09-23T06:28:43.017Z,7.98
2022-09-23T06:29:44.459Z,8.07
2022-09-23T06:30:45.933Z,8.17
2022-09-23T06:31:49.514Z,8.23
2022-09-23T06:32:52.400Z,8.27
2022-09-23T06:34:06.613Z,8.30
2022-09-23T06:35:22.663Z,8.37
2022-09-23T06:36:40.106Z,8.42
2022-09-23T06:37:43.259Z,8.43
2022-09-23T06:38:45.189Z,8.48
2022-09-23T06:39:46.604Z,8.48
2022-09-23T06:40:55.878Z,8.54
2022-09-23T06:41:57.350Z,8.57
2022-09-23T06:43:00.953Z,8.58
2022-09-23T06:44:02.769Z,8.62
2022-09-23T06:45:04.440Z,8.62
2022-09-23T06:46:07.549Z,8.60
2022-09-23T06:47:09.229Z,8.56
2022-09-23T06:48:11.791Z,8.55
2022-09-23T06:49:13.619Z,8.56
2022-09-23T06:50:15.283Z,8.57
2022-09-23T06:51:19.676Z,8.47
2022-09-23T06:52:21.235Z,8.49
2022-09-23T06:53:25.607Z,8.47
2022-09-23T06:54:29.092Z,8.46
2022-09-23T06:55:33.903Z,8.49
2022-09-23T06:56:39.225Z,8.54
2022-09-23T06:57:41.526Z,8.38
2022-09-23T06:58:43.888Z,8.30
2022-09-23T06:59:45.497Z,8.34
2022-09-23T07:00:46.897Z,8.45
2022-09-23T07:01:48.605Z,8.54
2022-09-23T07:02:50.228Z,8.62
2022-09-23T07:03:52.421Z,8.66
2022-09-23T07:04:56.557Z,8.70
2022-09-23T07:05:59.245Z,8.74
2022-09-23T07:07:00.728Z,8.77
2022-09-23T07:08:03.054Z,8.75
2022-09-23T07:09:06.615Z,8.92
2022-09-23T07:10:08.332Z,8.94
2022-09-23T07:11:12.263Z,8.84
2022-09-23T07:12:13.968Z,8.83
2022-09-23T07:13:16.407Z,8.85
2022-09-23T07:14:17.978Z,9.08
2022-09-23T07:15:19.422Z,9.11
2022-09-23T07:16:21.359Z,9.13
2022-09-23T07:17:24.440Z,9.17
2022-09-23T07:18:26.444Z,9.20
2022-09-23T07:19:27.895Z,9.19
2022-09-23T07:20:29.628Z,9.24
2022-09-23T07:21:31.471Z,9.28
2022-09-23T07:22:32.997Z,9.33
2022-09-23T07:23:34.981Z,9.50
2022-09-23T07:24:36.964Z,9.82
2022-09-23T07:25:38.749Z,9.97
2022-09-23T07:26:44.875Z,10.19
2022-09-23T07:27:48.992Z,10.44
2022-09-23T07:29:04.863Z,10.99
2022-09-23T07:30:10.641Z,12.15
2022-09-23T07:31:25.629Z,13.01
2022-09-23T07:32:42.165Z,13.96
2022-09-23T07:33:48.624Z,14.83
2022-09-23T07:34:50.223Z,15.58
2022-09-23T07:35:51.698Z,16.39
2022-09-23T07:36:54.253Z,17.57
2022-09-23T07:37:55.758Z,18.67
2022-09-23T07:39:03.141Z,19.73
2022-09-23T07:40:05.079Z,21.01
2022-09-23T07:41:10.277Z,22.85
2022-09-23T07:42:13.307Z,23.29
2022-09-23T07:43:14.776Z,23.43
2022-09-23T07:44:16.317Z,24.18
2022-09-23T07:45:18.303Z,25.00
2022-09-23T07:46:19.790Z,25.73
2022-09-23T07:47:21.360Z,25.98
2022-09-23T07:48:23.183Z,26.35
2022-09-23T07:49:25.836Z,26.98
2022-09-23T07:50:27.949Z,27.43
2022-09-23T07:51:36.109Z,27.94
2022-09-23T07:52:38.698Z,28.20
2022-09-23T07:53:40.585Z,28.39
2022-09-23T07:54:41.983Z,28.55
2022-09-23T07:55:43.557Z,28.88
2022-09-23T07:56:46.114Z,29.03
2022-09-23T07:57:47.534Z,28.97
2022-09-23T07:59:00.138Z,27.86
2022-09-23T08:00:02.835Z,26.77
2022-09-23T08:01:10.245Z,26.74
2022-09-23T08:02:12.267Z,25.45
2022-09-23T08:03:14.772Z,24.09
2022-09-23T08:04:23.406Z,22.73
2022-09-23T08:05:25.985Z,21.59
2022-09-23T08:06:27.910Z,21.52
2022-09-23T08:07:29.382Z,21.74
2022-09-23T08:08:31.315Z,21.94
2022-09-23T08:09:39.383Z,22.00
2022-09-23T08:10:40.886Z,22.46
2022-09-23T08:11:42.481Z,22.96
2022-09-23T08:12:44.026Z,24.16
2022-09-23T08:13:45.895Z,25.58
2022-09-23T08:14:47.329Z,25.97
2022-09-23T08:15:53.284Z,26.66
2022-09-23T08:16:57.099Z,27.35
2022-09-23T08:17:59.879Z,28.10
2022-09-23T08:19:02.585Z,27.93
2022-09-23T08:20:04.154Z,26.83
2022-09-23T08:21:05.839Z,25.78
2022-09-23T08:22:07.314Z,22.51
2022-09-23T08:23:09.513Z,21.87
2022-09-23T08:24:19.567Z,19.56
2022-09-23T08:25:22.673Z,19.74
2022-09-23T08:26:24.688Z,18.61
2022-09-23T08:27:28.059Z,18.43
2022-09-23T08:28:30.143Z,16.69
2022-09-23T08:29:31.567Z,15.94
2022-09-23T08:30:33.102Z,15.80
2022-09-23T08:31:34.707Z,14.71
2022-09-23T08:32:36.143Z,15.36
2022-09-23T08:33:37.633Z,15.67
2022-09-23T08:34:39.450Z,15.52
2022-09-23T08:35:41.347Z,14.58
2022-09-23T08:36:43.106Z,14.69
2022-09-23T08:37:44.623Z,14.81
2022-09-23T08:38:46.087Z,14.88
2022-09-23T08:39:47.609Z,14.51
2022-09-23T08:40:50.304Z,14.59
2022-09-23T08:42:07.529Z,14.53
2022-09-23T08:43:42.732Z,14.28
2022-09-23T08:44:48.973Z,14.42
2022-09-23T08:45:51.919Z,14.45
2022-09-23T08:47:20.989Z,14.42
2022-09-23T08:48:47.609Z,14.25
2022-09-23T08:50:12.055Z,14.41
2022-09-23T08:51:24.053Z,13.64
2022-09-23T08:52:35.647Z,13.42
2022-09-23T08:53:38.221Z,13.62
2022-09-23T08:54:39.969Z,13.67
2022-09-23T08:55:48.854Z,13.80
2022-09-23T08:56:52.339Z,13.84
2022-09-23T08:58:24.571Z,13.88
2022-09-23T08:59:38.321Z,13.88
2022-09-23T09:00:42.249Z,13.84
2022-09-23T09:01:45.614Z,14.03
2022-09-23T09:02:48.345Z,14.17
2022-09-23T09:03:54.833Z,14.44
2022-09-23T09:05:05.750Z,14.48
2022-09-23T09:06:16.712Z,14.66
2022-09-23T09:07:38.672Z,14.97
2022-09-23T09:08:42.065Z,14.80
2022-09-23T09:09:51.210Z,14.82
2022-09-23T09:10:55.206Z,14.96
2022-09-23T09:12:24.003Z,15.10
2022-09-23T09:13:31.899Z,14.84
2022-09-23T09:14:47.756Z,14.95
2022-09-23T09:16:16.186Z,14.95
2022-09-23T09:17:48.197Z,14.38
2022-09-23T09:18:55.580Z,14.29
2022-09-23T09:20:18.921Z,14.17
2022-09-23T09:21:25.056Z,14.46
2022-09-23T09:22:33.248Z,14.51
2022-09-23T09:23:38.799Z,14.55
2022-09-23T09:24:40.248Z,14.63
2022-09-23T09:25:47.919Z,14.20
2022-09-23T09:26:49.602Z,14.13
2022-09-23T09:27:52.575Z,14.12
2022-09-23T09:29:17.126Z,14.45
2022-09-23T09:30:25.600Z,14.70
2022-09-23T09:31:39.897Z,14.73
2022-09-23T09:32:48.548Z,14.78
2022-09-23T09:33:58.040Z,14.85
2022-09-23T09:35:09.252Z,14.72
2022-09-23T09:36:40.150Z,14.58
2022-09-23T09:37:47.435Z,14.45
2022-09-23T09:38:51.213Z,14.51
2022-09-23T09:39:52.667Z,14.71
2022-09-23T09:40:57.008Z,14.76
2022-09-23T09:41:59.621Z,14.90
2022-09-23T09:43:05.749Z,15.00
2022-09-23T09:44:23.477Z,15.03
2022-09-23T09:45:42.439Z,15.02
2022-09-23T09:47:28.409Z,15.02
2022-09-23T09:48:38.874Z,15.08
2022-09-23T09:50:06.732Z,15.15
2022-09-23T09:51:21.482Z,15.07
2022-09-23T09:52:29.906Z,15.02
2022-09-23T09:53:35.983Z,15.14
2022-09-23T09:54:39.169Z,15.22
2022-09-23T09:55:41.422Z,15.24
2022-09-23T09:56:44.540Z,15.31
2022-09-23T09:57:52.197Z,15.37
2022-09-23T09:59:01.992Z,15.27
2022-09-23T10:00:21.825Z,15.29
2022-09-23T10:01:31.168Z,15.24
2022-09-23T10:02:37.274Z,15.16
2022-09-23T10:03:43.770Z,15.25
2022-09-23T10:04:45.479Z,15.29
2022-09-23T10:05:54.372Z,15.26
2022-09-23T10:07:15.916Z,15.23
2022-09-23T10:08:23.357Z,15.29
2022-09-23T10:09:33.868Z,15.29
2022-09-23T10:10:35.328Z,15.00
2022-09-23T10:11:37.751Z,14.97
2022-09-23T10:12:47.374Z,15.07
2022-09-23T10:14:06.354Z,15.42
2022-09-23T10:15:28.352Z,14.92
2022-09-23T10:16:32.094Z,14.80
2022-09-23T10:17:34.484Z,14.83
2022-09-23T10:18:38.302Z,15.03
2022-09-23T10:19:45.776Z,15.01
2022-09-23T10:20:48.188Z,15.37
2022-09-23T10:21:58.602Z,15.67
2022-09-23T10:23:07.149Z,16.00
2022-09-23T10:24:20.876Z,16.27
2022-09-23T10:25:27.555Z,16.54
2022-09-23T10:26:37.513Z,16.72
2022-09-23T10:27:39.666Z,16.81
2022-09-23T10:29:01.083Z,17.22
2022-09-23T10:30:22.591Z,17.51
2022-09-23T10:31:28.265Z,17.63
2022-09-23T10:32:36.346Z,17.59
2022-09-23T10:33:47.347Z,17.25
2022-09-23T10:34:53.206Z,17.36
2022-09-23T10:35:57.220Z,17.14
2022-09-23T10:37:31.729Z,17.09
2022-09-23T10:38:33.294Z,17.20
2022-09-23T10:39:53.582Z,17.20
2022-09-23T10:41:15.396Z,16.74
2022-09-23T10:43:15.720Z,17.21
2022-09-23T10:44:52.997Z,17.63
2022-09-23T10:46:20.746Z,17.89
2022-09-23T10:47:40.631Z,16.86
2022-09-23T10:48:53.642Z,17.11
2022-09-23T10:50:08.199Z,17.03
2022-09-23T10:51:55.932Z,16.53
2022-09-23T10:53:05.071Z,16.73
2022-09-23T10:54:35.908Z,16.91
2022-09-23T10:56:02.954Z,16.97
2022-09-23T10:57:38.085Z,17.03
2022-09-23T10:59:17.951Z,17.17
2022-09-23T11:00:28.508Z,17.29
2022-09-23T11:01:39.663Z,17.27
2022-09-23T11:02:59.832Z,17.26
2022-09-23T11:04:25.992Z,17.23
2022-09-23T11:05:41.229Z,17.02
2022-09-23T11:07:00.729Z,16.88
2022-09-23T11:08:46.014Z,17.12
2022-09-23T11:10:11.383Z,17.24
2022-09-23T11:11:39.829Z,17.33
2022-09-23T11:12:53.940Z,17.04
2022-09-23T11:14:04.356Z,16.64
2022-09-23T11:15:31.240Z,16.80
2022-09-23T11:16:47.618Z,16.75
2022-09-23T11:17:51.690Z,16.81
2022-09-23T11:19:11.875Z,16.64
2022-09-23T11:20:35.232Z,16.35
2022-09-23T11:21:39.938Z,16.22
2022-09-23T11:23:09.600Z,16.52
2022-09-23T11:24:28.115Z,16.35
2022-09-23T11:25:59.221Z,16.35
2022-09-23T11:27:21.671Z,16.42
2022-09-23T11:29:00.547Z,16.56
2022-09-23T11:30:08.247Z,16.74
2022-09-23T11:31:59.928Z,16.74
2022-09-23T11:33:14.465Z,16.73
2022-09-23T11:34:45.911Z,16.74
2022-09-23T11:36:02.128Z,16.84
2022-09-23T11:37:04.052Z,16.76
2022-09-23T11:38:12.133Z,16.59
2022-09-23T11:39:29.566Z,16.64
2022-09-23T11:40:34.997Z,16.33
2022-09-23T11:41:39.608Z,16.23
2022-09-23T11:42:54.032Z,16.43
2022-09-23T11:44:07.362Z,16.45
2022-09-23T11:45:17.418Z,16.31
2022-09-23T11:46:32.523Z,16.00
2022-09-23T11:47:43.553Z,16.09
2022-09-23T11:48:57.167Z,16.12
2022-09-23T11:50:44.306Z,16.46
2022-09-23T11:52:03.515Z,16.60
2022-09-23T11:53:18.210Z,16.60
2022-09-23T11:54:22.191Z,16.74
2022-09-23T11:55:32.372Z,16.78
2022-09-23T11:56:45.296Z,16.85
2022-09-23T11:57:53.049Z,16.67
2022-09-23T11:59:15.975Z,16.59
2022-09-23T12:00:21.335Z,16.78
2022-09-23T12:01:37.509Z,16.95
2022-09-23T12:03:09.548Z,17.00
2022-09-23T12:04:33.111Z,16.87
2022-09-23T12:05:39.874Z,16.52
2022-09-23T12:07:03.479Z,16.59
2022-09-23T12:08:07.756Z,16.65
2022-09-23T12:09:57.623Z,16.81
2022-09-23T12:11:16.148Z,16.92
2022-09-23T12:13:05.079Z,16.87
2022-09-23T12:14:23.694Z,16.74
2022-09-23T12:15:48.786Z,16.91
2022-09-23T12:17:19.733Z,17.07
2022-09-23T12:18:54.014Z,17.28
2022-09-23T12:20:19.662Z,17.45
2022-09-23T12:21:48.711Z,17.27
2022-09-23T12:23:07.245Z,17.48
2022-09-23T12:24:41.670Z,17.58
2022-09-23T12:25:53.308Z,17.54
2022-09-23T12:26:59.481Z,17.48
2022-09-23T12:28:06.142Z,17.49
2022-09-23T12:29:13.785Z,17.57
2022-09-23T12:30:19.624Z,17.52
2022-09-23T12:31:30.642Z,17.24
2022-09-23T12:32:33.061Z,17.40
2022-09-23T12:33:35.776Z,17.58
2022-09-23T12:34:49.092Z,17.76
2022-09-23T12:35:53.966Z,17.86
2022-09-23T12:37:05.602Z,17.95
2022-09-23T12:38:29.864Z,18.16
2022-09-23T12:39:34.547Z,18.34
2022-09-23T12:40:44.036Z,18.45
2022-09-23T12:41:53.953Z,18.59
2022-09-23T12:42:55.876Z,18.38
2022-09-23T12:44:23.249Z,18.36
2022-09-23T12:45:34.907Z,18.03
2022-09-23T12:46:36.608Z,18.12
2022-09-23T12:47:39.718Z,18.58
2022-09-23T12:49:03.601Z,18.77
2022-09-23T12:50:43.402Z,19.05
2022-09-23T12:52:10.717Z,19.29
2022-09-23T12:53:33.928Z,19.53
2022-09-23T12:54:35.408Z,19.79
2022-09-23T12:55:39.679Z,19.60
2022-09-23T12:56:41.049Z,19.24
2022-09-23T12:57:42.692Z,19.16
2022-09-23T12:58:44.176Z,19.37
2022-09-23T12:59:51.321Z,19.46
2022-09-23T13:01:15.743Z,19.69
2022-09-23T13:03:09.058Z,19.90
2022-09-23T13:04:50.732Z,20.11
2022-09-23T13:06:16.629Z,20.26
2022-09-23T13:07:25.367Z,20.50
2022-09-23T13:08:26.937Z,20.21
2022-09-23T13:09:37.664Z,20.33
2022-09-23T13:10:49.446Z,20.42
2022-09-23T13:11:53.369Z,20.30
2022-09-23T13:12:56.535Z,19.91
2022-09-23T13:14:02.379Z,20.31
2022-09-23T13:15:12.171Z,20.54
2022-09-23T13:16:37.076Z,20.81
2022-09-23T13:17:40.173Z,20.17
2022-09-23T13:19:05.477Z,20.59
2022-09-23T13:20:22.202Z,20.91
2022-09-23T13:21:42.560Z,21.36
2022-09-23T13:22:50.028Z,21.49
2022-09-23T13:24:18.207Z,21.44
2022-09-23T13:25:24.035Z,21.28
2022-09-23T13:26:25.622Z,21.15
2022-09-23T13:27:32.771Z,21.18
2022-09-23T13:28:43.323Z,20.95
2022-09-23T13:29:54.193Z,20.39
2022-09-23T13:30:56.613Z,20.64
2022-09-23T13:32:01.003Z,20.67
2022-09-23T13:33:16.898Z,20.86
2022-09-23T13:34:26.180Z,20.90
2022-09-23T13:35:53.249Z,20.98
2022-09-23T13:36:54.727Z,21.04
2022-09-23T13:37:57.514Z,21.23
2022-09-23T13:39:17.783Z,21.35
2022-09-23T13:40:28.235Z,21.40
2022-09-23T13:41:29.849Z,21.58
2022-09-23T13:42:32.142Z,21.68
2022-09-23T13:43:41.625Z,20.89
2022-09-23T13:44:43.513Z,21.13
2022-09-23T13:45:45.263Z,21.32
2022-09-23T13:46:50.606Z,21.50
2022-09-23T13:47:58.766Z,21.55
2022-09-23T13:49:00.544Z,21.69
2022-09-23T13:50:02.910Z,21.66
2022-09-23T13:51:11.304Z,21.62
2022-09-23T13:52:26.441Z,21.83
2022-09-23T13:53:32.552Z,22.04
2022-09-23T13:54:49.525Z,22.08
2022-09-23T13:56:03.597Z,21.95
2022-09-23T13:57:05.075Z,21.87
2022-09-23T13:58:18.624Z,22.03
2022-09-23T13:59:23.039Z,22.11
2022-09-23T14:00:25.812Z,22.12
2022-09-23T14:01:34.623Z,22.10
2022-09-23T14:02:45.424Z,22.22
2022-09-23T14:03:46.945Z,22.16
2022-09-23T14:04:48.379Z,22.23
2022-09-23T14:05:50.727Z,22.01
2022-09-23T14:06:53.908Z,21.73
2022-09-23T14:07:56.449Z,21.69
2022-09-23T14:09:01.341Z,21.74
2022-09-23T14:10:05.199Z,21.67
2022-09-23T14:11:07.117Z,21.46
2022-09-23T14:12:10.750Z,21.17
2022-09-23T14:13:41.669Z,21.33
2022-09-23T14:14:43.418Z,21.41
2022-09-23T14:15:47.226Z,21.52
2022-09-23T14:16:50.594Z,21.56
2022-09-23T14:17:57.021Z,21.78
2022-09-23T14:19:00.004Z,21.86
2022-09-23T14:20:01.788Z,21.84
2022-09-23T14:21:04.017Z,21.60
2022-09-23T14:22:08.182Z,21.49
2022-09-23T14:23:14.730Z,21.36
2022-09-23T14:24:21.953Z,21.36
2022-09-23T14:25:23.809Z,21.39
2022-09-23T14:26:26.216Z,21.69
2022-09-23T14:27:32.583Z,21.76
2022-09-23T14:28:34.156Z,21.75
2022-09-23T14:29:43.542Z,21.83
2022-09-23T14:30:48.343Z,22.06
2022-09-23T14:31:56.927Z,21.52
2022-09-23T14:32:59.199Z,21.55
2022-09-23T14:34:00.817Z,21.65
2022-09-23T14:35:05.216Z,21.73
2022-09-23T14:36:31.818Z,21.74
2022-09-23T14:38:01.715Z,21.64
2022-09-23T14:39:11.251Z,21.85
2022-09-23T14:40:15.493Z,22.01
2022-09-23T14:41:23.928Z,22.17
2022-09-23T14:42:26.113Z,22.19
2022-09-23T14:43:28.432Z,22.18
2022-09-23T14:44:33.238Z,22.12
2022-09-23T14:45:38.707Z,22.07
2022-09-23T14:46:41.028Z,22.07
2022-09-23T14:47:50.333Z,22.24
2022-09-23T14:49:08.214Z,22.28
2022-09-23T14:50:35.130Z,22.22
2022-09-23T14:51:45.036Z,22.28
2022-09-23T14:52:50.783Z,22.08
2022-09-23T14:53:52.537Z,22.13
2022-09-23T14:54:57.278Z,21.93
2022-09-23T14:56:09.874Z,21.97
2022-09-23T14:57:23.636Z,22.02
2022-09-23T14:58:28.708Z,21.91
2022-09-23T14:59:35.727Z,21.82